Islander Express — WCJ6211 — position and weather

sailwx.info

Track history (hours):
 
Tides and Currents Weather Stations Pressure Air Temp Water Temp Dewpoint Dewpoint Depression Visibility Wind Speed Wind Dir Waves Ship Positions

Islander Express

Owner: RGWT INC, Long Beach, CA. More information available from US FCC via Universal Licensing System and Coast Guard Vessel Documentation Center.

Last reported at 2017-Oct-20 01:31 UTC. Time now 2017-Oct-20 08:41 UTC.
Position N 33°44' W 118°16'.

Length 37 m; draft 1.6 m.

Type: High speed craft. MMSI: 366943970.

Date/timePositionNaut miles runAvg speedWind from/ knotsBaromVisibWave heightAir tempDewpointWater temp
2017-Oct-20 01:31N 33°44' W 118°16'5 1.6
2017-Oct-19 22:22N 33°39' W 118°17'612.5
2017-Oct-19 21:51N 33°45' W 118°16'0 0.0
2017-Oct-19 21:24N 33°45' W 118°16'0 0.0
2017-Oct-19 19:38N 33°45' W 118°16'1 2.2
2017-Oct-19 19:22N 33°44' W 118°17'1518.7
2017-Oct-19 18:33N 33°31' W 118°26'227.0
2017-Oct-19 18:30N 33°30' W 118°27'14 6.1
2017-Oct-19 16:13N 33°40' W 118°15'511.7
2017-Oct-19 15:47N 33°45' W 118°16'0 0.0
2017-Oct-19 12:27N 33°45' W 118°16'0 0.0
2017-Oct-19 03:21N 33°45' W 118°16'0 0.0
2017-Oct-19 03:00N 33°45' W 118°16'0 0.0
2017-Oct-19 02:31N 33°45' W 118°16'0 0.0
2017-Oct-19 02:01N 33°45' W 118°16'1 3.0
2017-Oct-19 01:30N 33°43' W 118°16'1223.6
2017-Oct-19 01:01N 33°32' W 118°17'1116.1
2017-Oct-19 00:19N 33°21' W 118°19'0 0.0
2017-Oct-19 00:00N 33°21' W 118°19'1 2.3
2017-Oct-18 23:31N 33°20' W 118°18'1 0.3
2017-Oct-18 20:28N 33°19' W 118°18'22 6.8
2017-Oct-18 17:15N 33°26' W 117°53'724.9
2017-Oct-18 16:57N 33°27' W 117°44'2 4.9
2017-Oct-18 16:30N 33°28' W 117°42'0 0.0
2017-Oct-18 16:00N 33°28' W 117°42'1 0.1
2017-Oct-18 01:59N 33°27' W 117°42'1225.3
2017-Oct-18 01:30N 33°24' W 117°56'1425.4
2017-Oct-18 00:58N 33°22' W 118°12'6 0.9
2017-Oct-17 18:43N 33°19' W 118°18'2 3.6
2017-Oct-17 18:09N 33°21' W 118°19'318.5
2017-Oct-17 18:00N 33°22' W 118°16'1325.4
2017-Oct-17 17:30N 33°24' W 118°01'1325.1
2017-Oct-17 17:00N 33°26' W 117°46'4 8.2
2017-Oct-17 16:30N 33°28' W 117°42'0 0.0
2017-Oct-17 02:04N 33°27' W 117°42'0 5.0
2017-Oct-17 02:00N 33°27' W 117°42'1325.4
2017-Oct-17 01:31N 33°25' W 117°57'15 9.1
2017-Oct-16 23:54N 33°21' W 118°13'1926.4
2017-Oct-16 23:12N 33°25' W 117°52'526.5
2017-Oct-16 23:00N 33°26' W 117°45'3 5.2
2017-Oct-16 22:21N 33°28' W 117°42'0 0.0
2017-Oct-16 22:00N 33°28' W 117°42'0 0.0
2017-Oct-16 21:30N 33°28' W 117°42'2 1.9
2017-Oct-16 20:12N 33°26' W 117°44'2812.8
2017-Oct-16 18:01N 33°21' W 118°17'030.6
2017-Oct-16 18:00N 33°21' W 118°17'1325.8
2017-Oct-16 17:30N 33°24' W 118°02'17 1.3
2017-Oct-16 04:46N 33°28' W 117°42'0 0.1
2017-Oct-16 03:04N 33°27' W 117°42'0 7.5
2017-Oct-16 03:00N 33°27' W 117°42'1326.1
2017-Oct-16 02:30N 33°24' W 117°57'1711.4
2017-Oct-16 01:02N 33°21' W 118°17'011.9
2017-Oct-16 01:01N 33°21' W 118°17'1325.0
2017-Oct-16 00:30N 33°23' W 118°02'1426.3
2017-Oct-15 23:57N 33°26' W 117°45'3 2.3
2017-Oct-15 22:37N 33°27' W 117°42'416.6
2017-Oct-15 22:24N 33°26' W 117°45'1021.7
2017-Oct-15 21:56N 33°23' W 117°57'12 6.4
2017-Oct-15 20:05N 33°22' W 118°11'226.5
2017-Oct-15 20:00N 33°22' W 118°09'1122.9
2017-Oct-15 19:30N 33°25' W 117°56'12 9.3
2017-Oct-15 18:12N 33°28' W 117°42'316.0
2017-Oct-15 18:01N 33°26' W 117°45'1326.1
2017-Oct-15 17:31N 33°24' W 118°00'1325.9
2017-Oct-15 17:00N 33°21' W 118°15'3 6.8
2017-Oct-15 16:30N 33°21' W 118°19'3 5.7
2017-Oct-15 16:01N 33°22' W 118°16'1326.0
2017-Oct-15 15:31N 33°24' W 118°01'1325.5
2017-Oct-15 15:00N 33°27' W 117°46'4 3.7
2017-Oct-15 14:01N 33°28' W 117°42'0 0.1
2017-Oct-15 13:30N 33°28' W 117°41'0 0.0
2017-Oct-15 03:13N 33°28' W 117°42'1 6.6
2017-Oct-15 03:01N 33°27' W 117°43'1326.3
2017-Oct-15 02:31N 33°24' W 117°58'1326.1
2017-Oct-15 02:01N 33°22' W 118°13'5 9.8
2017-Oct-15 01:30N 33°21' W 118°19'2 4.5
2017-Oct-15 01:00N 33°21' W 118°17'1327.0
2017-Oct-15 00:30N 33°24' W 118°01'1326.6
2017-Oct-15 00:01N 33°26' W 117°45'3 6.7
2017-Oct-14 23:30N 33°28' W 117°42'0 0.0
2017-Oct-14 23:00N 33°28' W 117°42'1 2.9
2017-Oct-14 22:31N 33°27' W 117°43'1326.9
2017-Oct-14 22:01N 33°24' W 117°59'1326.6
2017-Oct-14 21:30N 33°22' W 118°14'4 8.1
2017-Oct-14 21:01N 33°21' W 118°19'1326.0
2017-Oct-14 20:31N 33°23' W 118°04'1326.4
2017-Oct-14 20:01N 33°25' W 117°48'612.1
2017-Oct-14 19:30N 33°28' W 117°42'612.3
2017-Oct-14 19:00N 33°25' W 117°48'1326.7
2017-Oct-14 18:30N 33°23' W 118°04'1325.1
2017-Oct-14 17:59N 33°21' W 118°19'3 6.8
2017-Oct-14 17:30N 33°24' W 118°19'1326.0
2017-Oct-14 17:00N 33°37' W 118°16'8 0.8
2017-Oct-14 06:12N 33°45' W 118°16'1 3.0
2017-Oct-14 06:00N 33°44' W 118°17'918.2
2017-Oct-14 05:31N 33°35' W 118°15'1326.9
2017-Oct-14 05:00N 33°22' W 118°19'3 6.3
2017-Oct-14 04:30N 33°25' W 118°21'7 9.2
2017-Oct-14 03:44N 33°27' W 118°30'420.1
2017-Oct-14 03:31N 33°30' W 118°26'1325.7
2017-Oct-14 03:01N 33°40' W 118°17'5 9.4
2017-Oct-14 02:30N 33°45' W 118°16'0 0.0
2017-Oct-14 02:00N 33°45' W 118°16'0 0.0
2017-Oct-14 01:16N 33°45' W 118°16'0 0.0
2017-Oct-14 01:00N 33°45' W 118°16'0 0.0
2017-Oct-13 01:46N 33°45' W 118°16'1 5.3
2017-Oct-13 01:30N 33°44' W 118°16'1123.0
2017-Oct-13 01:00N 33°32' W 118°17'11 9.4
2017-Oct-12 23:49N 33°21' W 118°19'824.4
2017-Oct-12 23:30N 33°26' W 118°26'3 5.7
2017-Oct-12 23:00N 33°27' W 118°30'1326.6
2017-Oct-12 22:31N 33°37' W 118°19'815.3
2017-Oct-12 22:00N 33°45' W 118°17'0 0.6
2017-Oct-12 21:21N 33°45' W 118°16'0 0.0
2017-Oct-12 20:56N 33°45' W 118°16'0 0.0
2017-Oct-12 20:08N 33°45' W 118°16'0 0.0
2017-Oct-12 19:53N 33°45' W 118°16'1 1.4
2017-Oct-12 19:15N 33°44' W 118°16'415.6
2017-Oct-12 19:00N 33°40' W 118°15'1711.7
2017-Oct-12 17:34N 33°24' W 118°21'226.5
2017-Oct-12 17:28N 33°22' W 118°20'1 2.3
2017-Oct-12 17:00N 33°21' W 118°19'1325.6
2017-Oct-12 16:31N 33°33' W 118°17'1119.5
2017-Oct-12 15:57N 33°44' W 118°17'1 0.0
2017-Oct-11 22:51N 33°45' W 118°16'2 5.7
2017-Oct-11 22:30N 33°43' W 118°16'4 7.3
2017-Oct-11 21:56N 33°46' W 118°12'0 0.0
2017-Oct-11 21:25N 33°46' W 118°12'0 0.1
2017-Oct-11 20:54N 33°46' W 118°12'0 0.0
2017-Oct-11 20:27N 33°46' W 118°12'0 0.1
2017-Oct-11 20:00N 33°46' W 118°12'0 0.0
2017-Oct-11 19:23N 33°46' W 118°12'0 0.0
2017-Oct-11 18:59N 33°46' W 118°12'0 0.0
2017-Oct-11 18:26N 33°46' W 118°12'0 0.0
2017-Oct-11 18:00N 33°46' W 118°12'0 0.0
2017-Oct-11 17:18N 33°46' W 118°12'0 0.0
2017-Oct-11 17:00N 33°46' W 118°12'0 0.0
2017-Oct-10 13:42N 33°46' W 118°12'0 0.0
2017-Oct-10 13:29N 33°46' W 118°12'0 0.0
2017-Oct-10 13:00N 33°46' W 118°12'0 0.0
2017-Oct-10 12:30N 33°46' W 118°12'0 0.0
2017-Oct-10 02:53N 33°46' W 118°12'0 0.0
2017-Oct-10 02:30N 33°46' W 118°12'0 0.0
2017-Oct-10 02:00N 33°46' W 118°12'  
Track history (hours):
 
Tides and Currents Weather Stations Pressure Air Temp Water Temp Dewpoint Dewpoint Depression Visibility Wind Speed Wind Dir Waves Ship Positions

Islander Express

Owner: RGWT INC, Long Beach, CA. More information available from US FCC via Universal Licensing System and Coast Guard Vessel Documentation Center.

Last reported at 2017-Oct-20 01:31 UTC. Time now 2017-Oct-20 08:41 UTC.
Position N 33°44' W 118°16'.

Length 37 m; draft 1.6 m.

Type: High speed craft. MMSI: 366943970.

Date/timePositionNaut miles runAvg speedWind from/ knotsBaromVisibWave heightAir tempDewpointWater temp
2017-Oct-20 01:31N 33°44' W 118°16'5 1.6
2017-Oct-19 22:22N 33°39' W 118°17'612.5
2017-Oct-19 21:51N 33°45' W 118°16'0 0.0
2017-Oct-19 21:24N 33°45' W 118°16'0 0.0
2017-Oct-19 19:38N 33°45' W 118°16'1 2.2
2017-Oct-19 19:22N 33°44' W 118°17'1518.7
2017-Oct-19 18:33N 33°31' W 118°26'227.0
2017-Oct-19 18:30N 33°30' W 118°27'14 6.1
2017-Oct-19 16:13N 33°40' W 118°15'511.7
2017-Oct-19 15:47N 33°45' W 118°16'0 0.0
2017-Oct-19 12:27N 33°45' W 118°16'0 0.0
2017-Oct-19 03:21N 33°45' W 118°16'0 0.0
2017-Oct-19 03:00N 33°45' W 118°16'0 0.0
2017-Oct-19 02:31N 33°45' W 118°16'0 0.0
2017-Oct-19 02:01N 33°45' W 118°16'1 3.0
2017-Oct-19 01:30N 33°43' W 118°16'1223.6
2017-Oct-19 01:01N 33°32' W 118°17'1116.1
2017-Oct-19 00:19N 33°21' W 118°19'0 0.0
2017-Oct-19 00:00N 33°21' W 118°19'1 2.3
2017-Oct-18 23:31N 33°20' W 118°18'1 0.3
2017-Oct-18 20:28N 33°19' W 118°18'22 6.8
2017-Oct-18 17:15N 33°26' W 117°53'724.9
2017-Oct-18 16:57N 33°27' W 117°44'2 4.9
2017-Oct-18 16:30N 33°28' W 117°42'0 0.0
2017-Oct-18 16:00N 33°28' W 117°42'1 0.1
2017-Oct-18 01:59N 33°27' W 117°42'1225.3
2017-Oct-18 01:30N 33°24' W 117°56'1425.4
2017-Oct-18 00:58N 33°22' W 118°12'6 0.9
2017-Oct-17 18:43N 33°19' W 118°18'2 3.6
2017-Oct-17 18:09N 33°21' W 118°19'318.5
2017-Oct-17 18:00N 33°22' W 118°16'1325.4
2017-Oct-17 17:30N 33°24' W 118°01'1325.1
2017-Oct-17 17:00N 33°26' W 117°46'4 8.2
2017-Oct-17 16:30N 33°28' W 117°42'0 0.0
2017-Oct-17 02:04N 33°27' W 117°42'0 5.0
2017-Oct-17 02:00N 33°27' W 117°42'1325.4
2017-Oct-17 01:31N 33°25' W 117°57'15 9.1
2017-Oct-16 23:54N 33°21' W 118°13'1926.4
2017-Oct-16 23:12N 33°25' W 117°52'526.5
2017-Oct-16 23:00N 33°26' W 117°45'3 5.2
2017-Oct-16 22:21N 33°28' W 117°42'0 0.0
2017-Oct-16 22:00N 33°28' W 117°42'0 0.0
2017-Oct-16 21:30N 33°28' W 117°42'2 1.9
2017-Oct-16 20:12N 33°26' W 117°44'2812.8
2017-Oct-16 18:01N 33°21' W 118°17'030.6
2017-Oct-16 18:00N 33°21' W 118°17'1325.8
2017-Oct-16 17:30N 33°24' W 118°02'17 1.3
2017-Oct-16 04:46N 33°28' W 117°42'0 0.1
2017-Oct-16 03:04N 33°27' W 117°42'0 7.5
2017-Oct-16 03:00N 33°27' W 117°42'1326.1
2017-Oct-16 02:30N 33°24' W 117°57'1711.4
2017-Oct-16 01:02N 33°21' W 118°17'011.9
2017-Oct-16 01:01N 33°21' W 118°17'1325.0
2017-Oct-16 00:30N 33°23' W 118°02'1426.3
2017-Oct-15 23:57N 33°26' W 117°45'3 2.3
2017-Oct-15 22:37N 33°27' W 117°42'416.6
2017-Oct-15 22:24N 33°26' W 117°45'1021.7
2017-Oct-15 21:56N 33°23' W 117°57'12 6.4
2017-Oct-15 20:05N 33°22' W 118°11'226.5
2017-Oct-15 20:00N 33°22' W 118°09'1122.9
2017-Oct-15 19:30N 33°25' W 117°56'12 9.3
2017-Oct-15 18:12N 33°28' W 117°42'316.0
2017-Oct-15 18:01N 33°26' W 117°45'1326.1
2017-Oct-15 17:31N 33°24' W 118°00'1325.9
2017-Oct-15 17:00N 33°21' W 118°15'3 6.8
2017-Oct-15 16:30N 33°21' W 118°19'3 5.7
2017-Oct-15 16:01N 33°22' W 118°16'1326.0
2017-Oct-15 15:31N 33°24' W 118°01'1325.5
2017-Oct-15 15:00N 33°27' W 117°46'4 3.7
2017-Oct-15 14:01N 33°28' W 117°42'0 0.1
2017-Oct-15 13:30N 33°28' W 117°41'0 0.0
2017-Oct-15 03:13N 33°28' W 117°42'1 6.6
2017-Oct-15 03:01N 33°27' W 117°43'1326.3
2017-Oct-15 02:31N 33°24' W 117°58'1326.1
2017-Oct-15 02:01N 33°22' W 118°13'5 9.8
2017-Oct-15 01:30N 33°21' W 118°19'2 4.5
2017-Oct-15 01:00N 33°21' W 118°17'1327.0
2017-Oct-15 00:30N 33°24' W 118°01'1326.6
2017-Oct-15 00:01N 33°26' W 117°45'3 6.7
2017-Oct-14 23:30N 33°28' W 117°42'0 0.0
2017-Oct-14 23:00N 33°28' W 117°42'1 2.9
2017-Oct-14 22:31N 33°27' W 117°43'1326.9
2017-Oct-14 22:01N 33°24' W 117°59'1326.6
2017-Oct-14 21:30N 33°22' W 118°14'4 8.1
2017-Oct-14 21:01N 33°21' W 118°19'1326.0
2017-Oct-14 20:31N 33°23' W 118°04'1326.4
2017-Oct-14 20:01N 33°25' W 117°48'612.1
2017-Oct-14 19:30N 33°28' W 117°42'612.3
2017-Oct-14 19:00N 33°25' W 117°48'1326.7
2017-Oct-14 18:30N 33°23' W 118°04'1325.1
2017-Oct-14 17:59N 33°21' W 118°19'3 6.8
2017-Oct-14 17:30N 33°24' W 118°19'1326.0
2017-Oct-14 17:00N 33°37' W 118°16'8 0.8
2017-Oct-14 06:12N 33°45' W 118°16'1 3.0
2017-Oct-14 06:00N 33°44' W 118°17'918.2
2017-Oct-14 05:31N 33°35' W 118°15'1326.9
2017-Oct-14 05:00N 33°22' W 118°19'3 6.3
2017-Oct-14 04:30N 33°25' W 118°21'7 9.2
2017-Oct-14 03:44N 33°27' W 118°30'420.1
2017-Oct-14 03:31N 33°30' W 118°26'1325.7
2017-Oct-14 03:01N 33°40' W 118°17'5 9.4
2017-Oct-14 02:30N 33°45' W 118°16'0 0.0
2017-Oct-14 02:00N 33°45' W 118°16'0 0.0
2017-Oct-14 01:16N 33°45' W 118°16'0 0.0
2017-Oct-14 01:00N 33°45' W 118°16'0 0.0
2017-Oct-13 01:46N 33°45' W 118°16'1 5.3
2017-Oct-13 01:30N 33°44' W 118°16'1123.0
2017-Oct-13 01:00N 33°32' W 118°17'11 9.4
2017-Oct-12 23:49N 33°21' W 118°19'824.4
2017-Oct-12 23:30N 33°26' W 118°26'3 5.7
2017-Oct-12 23:00N 33°27' W 118°30'1326.6
2017-Oct-12 22:31N 33°37' W 118°19'815.3
2017-Oct-12 22:00N 33°45' W 118°17'0 0.6
2017-Oct-12 21:21N 33°45' W 118°16'0 0.0
2017-Oct-12 20:56N 33°45' W 118°16'0 0.0
2017-Oct-12 20:08N 33°45' W 118°16'0 0.0
2017-Oct-12 19:53N 33°45' W 118°16'1 1.4
2017-Oct-12 19:15N 33°44' W 118°16'415.6
2017-Oct-12 19:00N 33°40' W 118°15'1711.7
2017-Oct-12 17:34N 33°24' W 118°21'226.5
2017-Oct-12 17:28N 33°22' W 118°20'1 2.3
2017-Oct-12 17:00N 33°21' W 118°19'1325.6
2017-Oct-12 16:31N 33°33' W 118°17'1119.5
2017-Oct-12 15:57N 33°44' W 118°17'1 0.0
2017-Oct-11 22:51N 33°45' W 118°16'2 5.7
2017-Oct-11 22:30N 33°43' W 118°16'4 7.3
2017-Oct-11 21:56N 33°46' W 118°12'0 0.0
2017-Oct-11 21:25N 33°46' W 118°12'0 0.1
2017-Oct-11 20:54N 33°46' W 118°12'0 0.0
2017-Oct-11 20:27N 33°46' W 118°12'0 0.1
2017-Oct-11 20:00N 33°46' W 118°12'0 0.0
2017-Oct-11 19:23N 33°46' W 118°12'0 0.0
2017-Oct-11 18:59N 33°46' W 118°12'0 0.0
2017-Oct-11 18:26N 33°46' W 118°12'0 0.0
2017-Oct-11 18:00N 33°46' W 118°12'0 0.0
2017-Oct-11 17:18N 33°46' W 118°12'0 0.0
2017-Oct-11 17:00N 33°46' W 118°12'0 0.0
2017-Oct-10 13:42N 33°46' W 118°12'0 0.0
2017-Oct-10 13:29N 33°46' W 118°12'0 0.0
2017-Oct-10 13:00N 33°46' W 118°12'0 0.0
2017-Oct-10 12:30N 33°46' W 118°12'0 0.0
2017-Oct-10 02:53N 33°46' W 118°12'0 0.0
2017-Oct-10 02:30N 33°46' W 118°12'0 0.0
2017-Oct-10 02:00N 33°46' W 118°12'  

Dump ship's entire track history